Youngstown, NY

2:35 AM EST on February 28, 2015 (GMT -0500)
Greater Rochester International | Change Station
CLOSE
Current Station
Airport
Location: Rochester,
Elevation: 554 ft
Nearby Weather Stations

Elev 554 ft 43.12 °N, 77.68 °W | Updated 41 minutes ago

Clear
Clear
0 °F
Feels Like -13 °F
N
7
Wind Variable Wind from SW

Today
High -- | Low -- °F
--% Chance of Precip.
Yesterday
High -- | Low -- °F
Precip. -- in
6:54 AM 6:03 PM
Waxing Gibbous, 75% visible
Pressure 30.74 in
Visibility 10.0 miles
Clouds Clear
Windchill -13 °F
Dew Point -5 °F
Humidity 79%
Rainfall 0.00 in
Snow Depth Not available.
UV 0 out of 12
Pollen .40 out of 12
Air Quality Not available.
Flu Activity Not available.
METAR KROC 280654Z 23006KT 10SM CLR M18/M21 A3068 RMK AO2 SLP407 T11781206

More Conditions Fewer Conditions

Pressure 30.74 in
Visibility 10.0 miles
Clouds Clear
Windchill -13 °F
Dew Point -5 °F
Humidity 79%
Rainfall 0.00 in
Snow Depth Not available.
UV 0 out of 12
Pollen .40 out of 12
Air Quality Not available.
Flu Activity Not available.
METAR KROC 280654Z 23006KT 10SM CLR M18/M21 A3068 RMK AO2 SLP407 T11781206

More Conditions Fewer Conditions

10-Day Weather Forecast

Almanac

Astronomy

Feb. 28, 2015 Rise Set
Actual Time
Civil Twilight
Nautical Twilight
Astronomical Twilight
Moon
Length of Visible Light
Length of Day
Tomorrow will be .
, % of the Moon is Illuminated

Today's Extremes

State Highs State Lows

Community

WunderPhotos

Upload Photos

1,800,981 photos uploaded!

WunderBlogs® & News

Nearby

Air Quality

  Air Quality AQ Index Pollutant
Not available.

Snow Depth

Station Depth Elevation

Earthquake Activity

City Distance Mag. Time & Date
Minimum magnitude displayed is 2.5.

Coastal Water Temperatures

Place Temperature

Nearby Weather Stations